createdAt,value
2018-09-02T00:00:32.751Z,3.77
2018-09-02T00:03:01.720Z,4.10
2018-09-02T00:05:29.541Z,3.60
2018-09-02T00:07:58.030Z,3.93
2018-09-02T00:10:25.902Z,3.93
2018-09-02T00:12:54.208Z,4.07
2018-09-02T00:15:23.247Z,3.87
2018-09-02T00:17:51.183Z,3.60
2018-09-02T00:20:18.997Z,3.90
2018-09-02T00:22:46.842Z,3.47
2018-09-02T00:25:14.531Z,4.73
2018-09-02T00:27:42.212Z,4.47
2018-09-02T00:30:10.221Z,4.33
2018-09-02T00:32:37.896Z,4.30
2018-09-02T00:35:06.140Z,4.33
2018-09-02T00:37:33.828Z,4.00
2018-09-02T00:40:01.801Z,4.00
2018-09-02T00:42:29.516Z,3.33
2018-09-02T00:44:57.515Z,4.03
2018-09-02T00:47:25.193Z,3.80
2018-09-02T00:49:53.023Z,4.10
2018-09-02T00:52:20.774Z,3.87
2018-09-02T00:54:48.506Z,4.13
2018-09-02T00:57:16.204Z,3.53
2018-09-02T00:59:43.909Z,4.03
2018-09-02T01:02:12.175Z,3.33
2018-09-02T01:04:43.086Z,3.17
2018-09-02T01:07:10.762Z,3.90
2018-09-02T01:09:39.013Z,4.43
2018-09-02T01:12:06.726Z,3.30
2018-09-02T01:14:34.664Z,2.90
2018-09-02T01:17:02.808Z,2.53
2018-09-02T01:19:30.482Z,3.80
2018-09-02T01:21:58.183Z,3.30
2018-09-02T01:24:25.886Z,4.13
2018-09-02T01:26:53.822Z,3.50
2018-09-02T01:29:21.729Z,3.80
2018-09-02T01:31:49.439Z,3.67
2018-09-02T01:34:17.157Z,4.83
2018-09-02T01:36:44.851Z,4.63
2018-09-02T01:39:12.834Z,4.37
2018-09-02T01:41:40.540Z,4.80
2018-09-02T01:44:08.216Z,4.73
2018-09-02T01:46:35.916Z,5.20
2018-09-02T01:49:03.640Z,4.23
2018-09-02T01:51:31.654Z,5.20
2018-09-02T01:53:59.312Z,5.53
2018-09-02T01:56:27.048Z,5.30
2018-09-02T01:58:55.347Z,5.50
2018-09-02T02:01:23.014Z,5.00
2018-09-02T02:03:50.694Z,5.00
2018-09-02T02:06:18.382Z,5.10
2018-09-02T02:08:46.048Z,5.37
2018-09-02T02:11:13.784Z,4.10
2018-09-02T02:13:41.448Z,4.20
2018-09-02T02:16:09.144Z,4.43
2018-09-02T02:18:36.904Z,3.43
2018-09-02T02:21:04.637Z,3.70
2018-09-02T02:23:32.859Z,3.13
2018-09-02T02:26:01.059Z,4.10
2018-09-02T02:28:28.751Z,3.80
2018-09-02T02:30:56.695Z,3.73
2018-09-02T02:33:24.382Z,4.07
2018-09-02T02:35:52.046Z,3.90
2018-09-02T02:38:19.716Z,4.60
2018-09-02T02:40:47.635Z,3.90
2018-09-02T02:43:15.302Z,3.80
2018-09-02T02:45:42.980Z,3.47
2018-09-02T02:48:10.648Z,4.07
2018-09-02T02:50:38.327Z,3.67
2018-09-02T02:53:06.278Z,3.27
2018-09-02T02:55:34.915Z,3.53
2018-09-02T02:58:02.884Z,3.30
2018-09-02T03:00:31.691Z,3.47
2018-09-02T03:02:59.564Z,3.60
2018-09-02T03:05:30.769Z,3.60
2018-09-02T03:07:58.443Z,3.40
2018-09-02T03:10:26.124Z,3.60
2018-09-02T03:12:53.819Z,2.60
2018-09-02T03:15:21.497Z,2.80
2018-09-02T03:17:49.232Z,3.00
2018-09-02T03:20:16.951Z,2.87
2018-09-02T03:22:44.660Z,3.20
2018-09-02T03:25:12.378Z,2.33
2018-09-02T03:27:40.117Z,3.30
2018-09-02T03:30:07.848Z,2.73
2018-09-02T03:32:35.798Z,2.60
2018-09-02T03:35:03.643Z,3.17
2018-09-02T03:37:31.323Z,2.73
2018-09-02T03:39:59.013Z,2.70
2018-09-02T03:42:26.687Z,2.80
2018-09-02T03:44:54.391Z,2.50
2018-09-02T03:47:22.064Z,2.57
2018-09-02T03:49:49.723Z,2.50
2018-09-02T03:52:17.395Z,2.70
2018-09-02T03:54:45.081Z,2.70
2018-09-02T03:57:12.931Z,2.60
2018-09-02T03:59:40.593Z,2.90
2018-09-02T04:02:08.260Z,2.37
2018-09-02T04:04:36.002Z,2.63
2018-09-02T04:07:03.859Z,2.50
2018-09-02T04:09:31.535Z,2.57
2018-09-02T04:11:59.239Z,2.37
2018-09-02T04:14:26.919Z,2.37
2018-09-02T04:16:54.668Z,2.50
2018-09-02T04:19:22.359Z,3.20
2018-09-02T04:21:50.110Z,2.70
2018-09-02T04:24:17.811Z,3.27
2018-09-02T04:26:45.488Z,3.00
2018-09-02T04:29:13.179Z,2.90
2018-09-02T04:31:40.851Z,3.00
2018-09-02T04:34:08.562Z,3.13
2018-09-02T04:36:36.248Z,3.40
2018-09-02T04:39:07.011Z,3.33
2018-09-02T04:41:34.686Z,3.00
2018-09-02T04:44:02.744Z,2.70
2018-09-02T04:46:32.121Z,2.57
2018-09-02T04:48:59.813Z,2.63
2018-09-02T04:51:27.491Z,2.87
2018-09-02T04:53:55.698Z,2.83
2018-09-02T04:56:23.378Z,3.23
2018-09-02T04:58:51.035Z,3.07
2018-09-02T05:01:18.731Z,2.53
2018-09-02T05:03:46.405Z,2.50
2018-09-02T05:06:14.902Z,3.30
2018-09-02T05:08:42.735Z,2.87
2018-09-02T05:11:10.439Z,2.87
2018-09-02T05:13:38.276Z,3.10
2018-09-02T05:16:05.971Z,2.63
2018-09-02T05:18:33.729Z,2.30
2018-09-02T05:21:01.711Z,2.43
2018-09-02T05:23:30.384Z,2.77
2018-09-02T05:25:58.764Z,2.67
2018-09-02T05:28:26.519Z,3.00
2018-09-02T05:30:54.249Z,2.47
2018-09-02T05:33:21.915Z,2.40
2018-09-02T05:35:49.639Z,2.37
2018-09-02T05:38:17.346Z,2.70
2018-09-02T05:40:45.049Z,2.90
2018-09-02T05:43:12.723Z,2.47
2018-09-02T05:45:40.430Z,2.47
2018-09-02T05:48:08.090Z,2.57
2018-09-02T05:50:35.779Z,2.60
2018-09-02T05:53:03.487Z,2.47
2018-09-02T05:55:31.175Z,2.20
2018-09-02T05:57:58.875Z,2.30
2018-09-02T06:00:26.627Z,2.50
2018-09-02T06:02:54.379Z,2.70
2018-09-02T06:05:24.436Z,2.63
2018-09-02T06:07:52.958Z,3.23
2018-09-02T06:10:20.686Z,2.37
2018-09-02T06:12:48.731Z,3.07
2018-09-02T06:15:16.400Z,3.00
2018-09-02T06:17:44.089Z,2.57
2018-09-02T06:20:12.031Z,2.53
2018-09-02T06:22:39.728Z,2.53
2018-09-02T06:25:07.455Z,2.50
2018-09-02T06:27:35.430Z,2.50
2018-09-02T06:30:03.262Z,2.50
2018-09-02T06:32:31.247Z,2.67
2018-09-02T06:35:02.840Z,2.30
2018-09-02T06:37:37.293Z,2.13
2018-09-02T06:40:05.183Z,2.50
2018-09-02T06:42:32.976Z,2.67
2018-09-02T06:45:00.831Z,2.63
2018-09-02T06:47:28.720Z,2.53
2018-09-02T06:49:56.415Z,2.20
2018-09-02T06:52:24.207Z,2.03
2018-09-02T06:54:52.312Z,2.40
2018-09-02T06:57:19.999Z,2.30
2018-09-02T06:59:47.724Z,2.60
2018-09-02T07:02:15.425Z,2.93
2018-09-02T07:04:43.187Z,2.67
2018-09-02T07:07:10.877Z,2.60
2018-09-02T07:09:38.535Z,2.67
2018-09-02T07:12:06.231Z,2.57
2018-09-02T07:14:33.968Z,2.67
2018-09-02T07:17:01.671Z,2.77
2018-09-02T07:19:29.583Z,2.97
2018-09-02T07:21:57.310Z,2.70
2018-09-02T07:24:25.217Z,2.80
2018-09-02T07:26:52.963Z,3.97
2018-09-02T07:29:20.658Z,3.77
2018-09-02T07:31:48.426Z,3.70
2018-09-02T07:34:16.407Z,4.67
2018-09-02T07:36:44.387Z,3.77
2018-09-02T07:39:12.182Z,3.70
2018-09-02T07:41:40.012Z,2.60
2018-09-02T07:44:07.729Z,2.70
2018-09-02T07:46:35.431Z,2.40
2018-09-02T07:49:03.308Z,2.40
2018-09-02T07:51:31.548Z,2.93
2018-09-02T07:53:59.340Z,2.87
2018-09-02T07:56:27.113Z,3.73
2018-09-02T07:58:54.785Z,3.63
2018-09-02T08:01:28.069Z,2.83
2018-09-02T08:03:56.011Z,3.03
2018-09-02T08:06:23.799Z,2.90
2018-09-02T08:08:51.480Z,2.83
2018-09-02T08:11:19.187Z,2.60
2018-09-02T08:13:46.857Z,2.73
2018-09-02T08:16:14.612Z,13.50
2018-09-02T08:18:42.411Z,6.17
2018-09-02T08:21:10.089Z,3.83
2018-09-02T08:23:37.850Z,3.70
2018-09-02T08:26:06.111Z,3.60
2018-09-02T08:28:33.881Z,2.97
2018-09-02T08:31:01.892Z,2.80
2018-09-02T08:33:29.590Z,3.27
2018-09-02T08:35:57.487Z,3.13
2018-09-02T08:38:25.405Z,3.27
2018-09-02T08:40:53.084Z,2.80
2018-09-02T08:43:20.773Z,3.00
2018-09-02T08:45:48.468Z,3.40
2018-09-02T08:48:17.219Z,2.73
2018-09-02T08:50:44.999Z,2.90
2018-09-02T08:53:12.674Z,3.13
2018-09-02T08:55:40.352Z,2.57
2018-09-02T08:58:08.052Z,3.27
2018-09-02T09:00:35.734Z,2.77
2018-09-02T09:03:03.583Z,2.80
2018-09-02T09:05:31.312Z,2.83
2018-09-02T09:07:59.144Z,3.30
2018-09-02T09:10:26.779Z,2.50
2018-09-02T09:12:54.549Z,2.53
2018-09-02T09:15:22.253Z,3.30
2018-09-02T09:17:50.447Z,2.50
2018-09-02T09:20:18.201Z,3.10
2018-09-02T09:22:45.977Z,3.17
2018-09-02T09:25:14.221Z,3.23
2018-09-02T09:27:41.745Z,2.70
2018-09-02T09:30:09.807Z,2.53
2018-09-02T09:32:37.958Z,2.43
2018-09-02T09:35:05.994Z,2.70
2018-09-02T09:37:33.928Z,2.67
2018-09-02T09:40:01.795Z,2.97
2018-09-02T09:42:29.997Z,2.77
2018-09-02T09:44:57.687Z,3.03
2018-09-02T09:47:25.347Z,2.30
2018-09-02T09:49:53.067Z,3.10
2018-09-02T09:52:21.809Z,3.20
2018-09-02T09:54:49.497Z,2.43
2018-09-02T09:57:19.153Z,2.43
2018-09-02T09:59:46.859Z,3.27
2018-09-02T10:02:14.596Z,2.43
2018-09-02T10:04:42.658Z,3.10
2018-09-02T10:07:10.355Z,3.53
2018-09-02T10:09:38.087Z,2.67
2018-09-02T10:12:05.824Z,2.90
2018-09-02T10:14:33.650Z,2.37
2018-09-02T10:17:01.350Z,2.97
2018-09-02T10:19:29.080Z,2.30
2018-09-02T10:21:56.776Z,2.77
2018-09-02T10:24:24.577Z,2.20
2018-09-02T10:26:52.260Z,2.80
2018-09-02T10:29:19.990Z,3.07
2018-09-02T10:31:47.678Z,2.77
2018-09-02T10:34:15.327Z,3.43
2018-09-02T10:36:43.041Z,2.87
2018-09-02T10:39:10.724Z,3.03
2018-09-02T10:41:38.468Z,3.00
2018-09-02T10:44:07.075Z,2.83
2018-09-02T10:46:34.758Z,2.43
2018-09-02T10:49:02.797Z,2.73
2018-09-02T10:51:30.471Z,2.70
2018-09-02T10:53:58.134Z,2.10
2018-09-02T10:56:26.842Z,2.80
2018-09-02T10:58:54.532Z,2.40
2018-09-02T11:01:22.207Z,2.73
2018-09-02T11:03:49.884Z,2.47
2018-09-02T11:06:17.663Z,2.60
2018-09-02T11:08:45.333Z,2.30
2018-09-02T11:11:13.165Z,2.37
2018-09-02T11:13:41.243Z,2.57
2018-09-02T11:16:12.699Z,2.43
2018-09-02T11:18:40.480Z,2.30
2018-09-02T11:21:09.002Z,2.60
2018-09-02T11:23:36.719Z,2.77
2018-09-02T11:26:04.742Z,2.63
2018-09-02T11:28:33.213Z,3.03
2018-09-02T11:31:00.898Z,2.90
2018-09-02T11:33:28.604Z,2.53
2018-09-02T11:35:56.288Z,3.43
2018-09-02T11:38:24.250Z,2.80
2018-09-02T11:40:51.944Z,3.20
2018-09-02T11:43:19.618Z,3.10
2018-09-02T11:45:47.275Z,3.03
2018-09-02T11:48:14.999Z,2.80
2018-09-02T11:50:42.691Z,3.03
2018-09-02T11:53:10.363Z,2.37
2018-09-02T11:55:38.055Z,2.83
2018-09-02T11:58:05.736Z,2.90
2018-09-02T12:00:33.745Z,3.40
2018-09-02T12:03:02.265Z,3.03
2018-09-02T12:05:30.059Z,3.13
2018-09-02T12:07:57.737Z,3.20
2018-09-02T12:10:25.396Z,2.80
2018-09-02T12:12:53.152Z,2.83
2018-09-02T12:15:20.836Z,2.90
2018-09-02T12:17:48.548Z,3.10
2018-09-02T12:20:16.607Z,3.47
2018-09-02T12:22:44.278Z,2.90
2018-09-02T12:25:11.991Z,3.70
2018-09-02T12:27:39.673Z,3.00
2018-09-02T12:30:07.390Z,3.20
2018-09-02T12:32:35.328Z,4.13
2018-09-02T12:35:03.034Z,3.77
2018-09-02T12:37:30.756Z,3.73
2018-09-02T12:39:58.423Z,4.27
2018-09-02T12:42:26.108Z,3.23
2018-09-02T12:44:53.819Z,3.70
2018-09-02T12:47:21.547Z,3.87
2018-09-02T12:49:49.226Z,4.00
2018-09-02T12:52:16.950Z,3.37
2018-09-02T12:54:44.607Z,3.70
2018-09-02T12:57:12.307Z,3.77
2018-09-02T12:59:39.987Z,3.90
2018-09-02T13:02:07.763Z,4.17
2018-09-02T13:04:38.779Z,4.17
2018-09-02T13:07:06.579Z,3.77
2018-09-02T13:09:34.325Z,3.47
2018-09-02T13:12:01.982Z,4.37
2018-09-02T13:14:29.783Z,4.40
2018-09-02T13:16:57.464Z,4.27
2018-09-02T13:19:25.200Z,3.73
2018-09-02T13:21:52.923Z,4.10
2018-09-02T13:24:20.574Z,3.70
2018-09-02T13:26:48.300Z,4.33
2018-09-02T13:29:16.059Z,4.13
2018-09-02T13:31:43.793Z,4.43
2018-09-02T13:34:11.459Z,4.67
2018-09-02T13:36:39.150Z,4.07
2018-09-02T13:39:07.754Z,4.13
2018-09-02T13:41:35.471Z,3.80
2018-09-02T13:44:03.185Z,3.80
2018-09-02T13:46:30.879Z,4.23
2018-09-02T13:48:58.535Z,5.07
2018-09-02T13:51:26.370Z,5.00
2018-09-02T13:53:53.971Z,4.37
2018-09-02T13:56:21.651Z,4.20
2018-09-02T13:58:49.332Z,3.80
2018-09-02T14:01:17.008Z,4.37
2018-09-02T14:03:44.670Z,4.97
2018-09-02T14:06:12.375Z,4.10
2018-09-02T14:08:40.062Z,4.20
2018-09-02T14:11:07.744Z,4.47
2018-09-02T14:13:35.407Z,4.13
2018-09-02T14:16:03.113Z,3.60
2018-09-02T14:18:30.843Z,3.70
2018-09-02T14:20:58.535Z,4.20
2018-09-02T14:23:26.288Z,3.80
2018-09-02T14:25:54.207Z,3.93
2018-09-02T14:28:21.956Z,3.80
2018-09-02T14:30:49.568Z,3.63
2018-09-02T14:33:17.241Z,4.03
2018-09-02T14:35:44.955Z,4.43
2018-09-02T14:38:12.634Z,3.97
2018-09-02T14:40:40.311Z,4.37
2018-09-02T14:43:08.007Z,3.80
2018-09-02T14:45:44.195Z,3.93
2018-09-02T14:48:11.880Z,3.80
2018-09-02T14:50:39.564Z,3.90
2018-09-02T14:53:07.468Z,3.93
2018-09-02T14:55:35.167Z,3.57
2018-09-02T14:58:14.193Z,3.40
2018-09-02T15:00:48.394Z,3.80
2018-09-02T15:03:16.076Z,3.87
2018-09-02T15:05:43.735Z,3.83
2018-09-02T15:08:11.475Z,3.40
2018-09-02T15:10:39.164Z,4.17
2018-09-02T15:13:06.928Z,4.40
2018-09-02T15:15:34.699Z,3.50
2018-09-02T15:18:02.375Z,3.57
2018-09-02T15:20:30.184Z,3.47
2018-09-02T15:22:57.867Z,3.50
2018-09-02T15:25:25.595Z,3.40
2018-09-02T15:27:53.414Z,3.40
2018-09-02T15:30:21.763Z,3.40
2018-09-02T15:32:49.519Z,3.70
2018-09-02T15:35:17.209Z,3.80
2018-09-02T15:37:44.904Z,3.70
2018-09-02T15:40:12.623Z,3.50
2018-09-02T15:42:40.342Z,3.40
2018-09-02T15:45:09.036Z,4.10
2018-09-02T15:47:36.694Z,3.80
2018-09-02T15:50:05.207Z,3.77
2018-09-02T15:52:33.011Z,3.50
2018-09-02T15:55:00.699Z,3.33
2018-09-02T15:57:28.631Z,3.70
2018-09-02T15:59:56.339Z,3.37
2018-09-02T16:02:24.011Z,2.90
2018-09-02T16:04:51.786Z,4.30
2018-09-02T16:07:19.512Z,4.10
2018-09-02T16:09:50.671Z,3.70
2018-09-02T16:12:18.436Z,3.30
2018-09-02T16:14:46.119Z,3.47
2018-09-02T16:17:13.868Z,3.70
2018-09-02T16:19:41.523Z,3.00
2018-09-02T16:22:09.294Z,3.20
2018-09-02T16:24:37.248Z,3.83
2018-09-02T16:27:05.000Z,3.37
2018-09-02T16:29:32.830Z,3.73
2018-09-02T16:32:00.792Z,3.57
2018-09-02T16:34:28.519Z,2.70
2018-09-02T16:36:56.283Z,2.80
2018-09-02T16:39:24.375Z,3.10
2018-09-02T16:41:52.181Z,2.87
2018-09-02T16:44:19.894Z,3.30
2018-09-02T16:46:47.582Z,3.20
2018-09-02T16:49:15.259Z,3.57
2018-09-02T16:51:46.928Z,3.73
2018-09-02T16:54:14.611Z,3.37
2018-09-02T16:56:42.424Z,3.73
2018-09-02T16:59:10.237Z,3.10
2018-09-02T17:01:38.006Z,3.50
2018-09-02T17:04:07.753Z,3.43
2018-09-02T17:06:35.965Z,3.13
2018-09-02T17:09:06.832Z,3.80
2018-09-02T17:11:34.496Z,3.30
2018-09-02T17:14:02.332Z,3.93
2018-09-02T17:16:33.857Z,4.03
2018-09-02T17:19:05.934Z,3.77
2018-09-02T17:21:33.873Z,3.93
2018-09-02T17:24:01.795Z,3.77
2018-09-02T17:26:29.543Z,3.80
2018-09-02T17:28:57.273Z,3.23
2018-09-02T17:31:24.967Z,3.93
2018-09-02T17:33:52.796Z,4.00
2018-09-02T17:36:20.517Z,3.40
2018-09-02T17:38:48.210Z,3.33
2018-09-02T17:41:15.912Z,4.90
2018-09-02T17:43:43.587Z,3.90
2018-09-02T17:46:11.276Z,4.70
2018-09-02T17:48:39.142Z,3.30
2018-09-02T17:51:06.802Z,3.70
2018-09-02T17:53:34.591Z,4.50
2018-09-02T17:56:02.302Z,4.20
2018-09-02T17:58:30.010Z,3.70
2018-09-02T18:00:58.836Z,4.10
2018-09-02T18:03:26.528Z,3.93
2018-09-02T18:05:54.377Z,4.60
2018-09-02T18:08:22.234Z,4.00
2018-09-02T18:10:49.994Z,3.50
2018-09-02T18:13:17.843Z,3.90
2018-09-02T18:15:45.610Z,3.53
2018-09-02T18:18:13.390Z,3.43
2018-09-02T18:20:41.299Z,3.50
2018-09-02T18:23:09.056Z,3.87
2018-09-02T18:25:36.843Z,3.50
2018-09-02T18:28:06.923Z,3.80
2018-09-02T18:30:34.674Z,3.40
2018-09-02T18:33:02.750Z,3.70
2018-09-02T18:35:30.524Z,4.00
2018-09-02T18:37:58.287Z,3.67
2018-09-02T18:40:26.010Z,3.73
2018-09-02T18:42:53.820Z,3.83
2018-09-02T18:45:21.756Z,3.57
2018-09-02T18:47:49.418Z,4.07
2018-09-02T18:50:17.259Z,3.70
2018-09-02T18:52:45.042Z,3.87
2018-09-02T18:55:13.180Z,3.40
2018-09-02T18:57:41.217Z,3.90
2018-09-02T19:00:08.929Z,3.97
2018-09-02T19:02:42.384Z,3.80
2018-09-02T19:05:10.199Z,4.17
2018-09-02T19:07:37.891Z,4.17
2018-09-02T19:10:06.515Z,3.63
2018-09-02T19:12:34.288Z,3.73
2018-09-02T19:15:02.797Z,4.13
2018-09-02T19:17:30.811Z,3.60
2018-09-02T19:19:59.575Z,4.13
2018-09-02T19:22:27.871Z,4.00
2018-09-02T19:24:57.338Z,4.27
2018-09-02T19:27:25.620Z,3.80
2018-09-02T19:29:54.247Z,4.40
2018-09-02T19:32:21.987Z,3.90
2018-09-02T19:34:49.767Z,3.80
2018-09-02T19:37:17.672Z,4.20
2018-09-02T19:39:45.404Z,3.40
2018-09-02T19:42:13.203Z,4.33
2018-09-02T19:44:40.926Z,4.17
2018-09-02T19:47:11.048Z,4.33
2018-09-02T19:49:39.718Z,3.87
2018-09-02T19:52:07.428Z,3.50
2018-09-02T19:54:35.267Z,4.07
2018-09-02T19:57:03.099Z,4.60
2018-09-02T19:59:30.788Z,4.23
2018-09-02T20:01:58.514Z,3.30
2018-09-02T20:04:26.426Z,3.87
2018-09-02T20:06:54.179Z,3.63
2018-09-02T20:09:23.449Z,3.20
2018-09-02T20:11:51.343Z,4.73
2018-09-02T20:14:19.046Z,3.20
2018-09-02T20:16:47.041Z,4.70
2018-09-02T20:19:16.856Z,4.47
2018-09-02T20:21:46.787Z,4.43
2018-09-02T20:24:16.901Z,3.80
2018-09-02T20:26:44.682Z,4.27
2018-09-02T20:29:13.263Z,4.10
2018-09-02T20:31:41.014Z,4.30
2018-09-02T20:34:09.939Z,4.03
2018-09-02T20:36:37.908Z,3.47
2018-09-02T20:39:08.244Z,4.00
2018-09-02T20:41:37.802Z,3.67
2018-09-02T20:44:05.961Z,4.63
2018-09-02T20:46:33.931Z,4.03
2018-09-02T20:49:01.820Z,4.10
2018-09-02T20:51:29.729Z,4.90
2018-09-02T20:53:57.528Z,4.27
2018-09-02T20:56:25.457Z,5.00
2018-09-02T20:58:53.264Z,4.53
2018-09-02T21:01:21.074Z,4.17
2018-09-02T21:03:48.878Z,4.60
2018-09-02T21:06:16.615Z,4.40
2018-09-02T21:08:44.308Z,4.17
2018-09-02T21:11:12.178Z,4.43
2018-09-02T21:13:39.980Z,3.80
2018-09-02T21:16:07.708Z,4.43
2018-09-02T21:18:35.637Z,4.73
2018-09-02T21:21:03.735Z,3.83
2018-09-02T21:23:31.460Z,3.90
2018-09-02T21:25:59.163Z,3.93
2018-09-02T21:28:26.909Z,5.23
2018-09-02T21:30:54.698Z,5.00
2018-09-02T21:33:22.632Z,5.27
2018-09-02T21:35:50.340Z,4.70
2018-09-02T21:38:18.116Z,3.97
2018-09-02T21:40:45.884Z,4.73
2018-09-02T21:43:13.596Z,4.40
2018-09-02T21:45:41.676Z,4.57
2018-09-02T21:48:09.367Z,3.70
2018-09-02T21:50:37.299Z,4.93
2018-09-02T21:53:05.246Z,6.20
2018-09-02T21:55:33.111Z,4.63
2018-09-02T21:58:00.819Z,4.53
2018-09-02T22:00:28.702Z,3.97
2018-09-02T22:02:56.474Z,4.20
2018-09-02T22:05:24.419Z,3.70
2018-09-02T22:07:52.099Z,3.93
2018-09-02T22:10:19.807Z,4.97
2018-09-02T22:12:47.583Z,5.13
2018-09-02T22:15:15.284Z,5.60
2018-09-02T22:17:43.008Z,3.70
2018-09-02T22:20:10.741Z,5.73
2018-09-02T22:22:38.605Z,5.27
2018-09-02T22:25:07.359Z,4.03
2018-09-02T22:27:35.090Z,4.13
2018-09-02T22:30:03.012Z,4.40
2018-09-02T22:32:30.747Z,5.43
2018-09-02T22:34:58.610Z,4.97
2018-09-02T22:37:26.342Z,4.03
2018-09-02T22:39:54.440Z,4.77
2018-09-02T22:42:22.172Z,4.50
2018-09-02T22:44:49.942Z,4.90
2018-09-02T22:47:18.038Z,5.10
2018-09-02T22:49:45.835Z,4.80
2018-09-02T22:52:13.484Z,5.20
2018-09-02T22:54:41.245Z,5.23
2018-09-02T22:57:08.943Z,4.90
2018-09-02T22:59:36.684Z,4.20
2018-09-02T23:02:04.427Z,4.90
2018-09-02T23:04:32.100Z,5.03
2018-09-02T23:06:59.832Z,5.77
2018-09-02T23:09:27.524Z,5.33
2018-09-02T23:11:55.418Z,5.43
2018-09-02T23:14:23.248Z,5.70
2018-09-02T23:16:50.971Z,4.30
2018-09-02T23:19:18.915Z,4.47
2018-09-02T23:21:46.714Z,4.00
2018-09-02T23:24:14.422Z,3.93
2018-09-02T23:26:42.111Z,4.97
2018-09-02T23:29:10.004Z,5.17
2018-09-02T23:31:37.792Z,4.83
2018-09-02T23:34:05.575Z,4.80
2018-09-02T23:36:33.367Z,4.90
2018-09-02T23:39:01.283Z,5.97
2018-09-02T23:41:29.004Z,6.53
2018-09-02T23:43:56.719Z,5.23
2018-09-02T23:46:24.430Z,5.80
2018-09-02T23:48:52.207Z,6.97
2018-09-02T23:51:19.990Z,7.00
2018-09-02T23:53:47.768Z,6.90
2018-09-02T23:56:15.721Z,5.23
2018-09-02T23:58:43.420Z,7.33
